createdAt,value
2023-01-26T00:01:29.242Z,99006.00
2023-01-26T00:03:57.654Z,99010.00
2023-01-26T00:06:25.993Z,99014.00
2023-01-26T00:08:54.939Z,98996.00
2023-01-26T00:11:24.638Z,98995.00
2023-01-26T00:13:52.662Z,98996.00
2023-01-26T00:16:22.159Z,98990.00
2023-01-26T00:18:50.289Z,98992.00
2023-01-26T00:21:19.128Z,98983.00
2023-01-26T00:23:47.200Z,98987.00
2023-01-26T00:26:16.170Z,98983.00
2023-01-26T00:28:44.218Z,98987.00
2023-01-26T00:31:13.680Z,98977.00
2023-01-26T00:33:43.113Z,98974.00
2023-01-26T00:36:11.303Z,98968.00
2023-01-26T00:38:39.563Z,98957.00
2023-01-26T00:41:07.629Z,98964.00
2023-01-26T00:43:35.651Z,98962.00
2023-01-26T00:46:03.678Z,98962.00
2023-01-26T00:48:31.675Z,98965.00
2023-01-26T00:51:01.060Z,98954.00
2023-01-26T00:53:29.051Z,98960.00
2023-01-26T00:55:58.175Z,98965.00
2023-01-26T00:58:26.268Z,98959.00
2023-01-26T01:00:54.424Z,98956.00
2023-01-26T01:03:22.464Z,98962.00
2023-01-26T01:05:50.507Z,98949.00
2023-01-26T01:08:19.893Z,98952.00
2023-01-26T01:10:47.926Z,98936.00
2023-01-26T01:13:15.930Z,98942.00
2023-01-26T01:15:43.961Z,98936.00
2023-01-26T01:18:11.959Z,98943.00
2023-01-26T01:20:41.917Z,98932.00
2023-01-26T01:23:09.939Z,98932.00
2023-01-26T01:25:39.325Z,98924.00
2023-01-26T01:28:07.313Z,98918.00
2023-01-26T01:30:35.331Z,98919.00
2023-01-26T01:33:03.370Z,98909.00
2023-01-26T01:35:31.722Z,98919.00
2023-01-26T01:37:59.751Z,98911.00
2023-01-26T01:40:27.771Z,98918.00
2023-01-26T01:42:57.161Z,98918.00
2023-01-26T01:45:46.126Z,98917.00
2023-01-26T01:48:17.981Z,98916.00
2023-01-26T01:50:46.118Z,98923.00
2023-01-26T01:53:15.588Z,98910.00
2023-01-26T01:55:43.621Z,98914.00
2023-01-26T01:58:13.007Z,98906.00
2023-01-26T02:00:41.061Z,98906.00
2023-01-26T02:03:14.843Z,98914.00
2023-01-26T02:05:50.204Z,98903.00
2023-01-26T02:08:18.424Z,98890.00
2023-01-26T02:10:47.632Z,98905.00
2023-01-26T02:13:17.090Z,98902.00
2023-01-26T02:15:45.403Z,98873.00
2023-01-26T02:18:13.546Z,98883.00
2023-01-26T02:20:44.963Z,98882.00
2023-01-26T02:23:19.420Z,98883.00
2023-01-26T02:25:57.387Z,98874.00
2023-01-26T02:28:27.180Z,98867.00
2023-01-26T02:30:55.308Z,98874.00
2023-01-26T02:33:24.172Z,98874.00
2023-01-26T02:35:52.304Z,98864.00
2023-01-26T02:38:20.849Z,98866.00
2023-01-26T02:40:50.832Z,98852.00
2023-01-26T02:43:19.278Z,98861.00
2023-01-26T02:45:47.354Z,98853.00
2023-01-26T02:48:35.401Z,98853.00
2023-01-26T02:51:02.629Z,98845.00
2023-01-26T02:53:30.633Z,98857.00
2023-01-26T02:55:57.681Z,98853.00
2023-01-26T02:58:27.086Z,98856.00
2023-01-26T03:00:55.421Z,98855.00
2023-01-26T03:03:25.121Z,98844.00
2023-01-26T03:05:53.137Z,98852.00
2023-01-26T03:08:21.219Z,98845.00
2023-01-26T03:10:49.269Z,98849.00
2023-01-26T03:13:17.317Z,98842.00
2023-01-26T03:15:52.811Z,98844.00
2023-01-26T03:18:38.489Z,98838.00
2023-01-26T03:21:24.543Z,98853.00
2023-01-26T03:24:10.283Z,98847.00
2023-01-26T03:26:55.717Z,98850.00
2023-01-26T03:29:24.216Z,98839.00
2023-01-26T03:31:53.651Z,98842.00
2023-01-26T03:34:21.702Z,98838.00
2023-01-26T03:36:49.987Z,98836.00
2023-01-26T03:39:31.933Z,98832.00
2023-01-26T03:42:17.281Z,98836.00
2023-01-26T03:45:02.926Z,98836.00
2023-01-26T03:47:51.239Z,98831.00
2023-01-26T03:50:36.999Z,98828.00
2023-01-26T03:53:22.724Z,98818.00
2023-01-26T03:56:08.324Z,98821.00
2023-01-26T03:58:36.408Z,98826.00
2023-01-26T04:01:06.973Z,98826.00
2023-01-26T04:03:53.901Z,98828.00
2023-01-26T04:06:39.724Z,98830.00
2023-01-26T04:09:07.825Z,98822.00
2023-01-26T04:11:35.890Z,98817.00
2023-01-26T04:14:21.567Z,98826.00
2023-01-26T04:17:07.246Z,98826.00
2023-01-26T04:19:54.016Z,98820.00
2023-01-26T04:22:22.077Z,98821.00
2023-01-26T04:24:50.125Z,98817.00
2023-01-26T04:27:18.185Z,98818.00
2023-01-26T04:29:46.222Z,98815.00
2023-01-26T04:32:14.247Z,98808.00
2023-01-26T04:34:43.692Z,98802.00
2023-01-26T04:37:11.723Z,98810.00
2023-01-26T04:39:39.774Z,98810.00
2023-01-26T04:42:07.920Z,98808.00
2023-01-26T04:44:36.063Z,98806.00
2023-01-26T04:47:04.085Z,98812.00
2023-01-26T04:49:32.180Z,98808.00
2023-01-26T04:52:01.605Z,98809.00
2023-01-26T04:54:29.649Z,98797.00
2023-01-26T04:56:57.675Z,98807.00
2023-01-26T04:59:25.684Z,98804.00
2023-01-26T05:01:53.747Z,98809.00
2023-01-26T05:04:22.020Z,98811.00
2023-01-26T05:06:50.773Z,98815.00
2023-01-26T05:09:20.205Z,98814.00
2023-01-26T05:11:48.239Z,98804.00
2023-01-26T05:14:16.549Z,98803.00
2023-01-26T05:16:44.638Z,98805.00
2023-01-26T05:19:13.110Z,98813.00
2023-01-26T05:21:41.169Z,98804.00
2023-01-26T05:24:09.694Z,98802.00
2023-01-26T05:26:39.238Z,98811.00
2023-01-26T05:29:08.019Z,98808.00
2023-01-26T05:31:36.666Z,98810.00
2023-01-26T05:34:04.724Z,98813.00
2023-01-26T05:36:32.773Z,98807.00
2023-01-26T05:39:00.837Z,98796.00
2023-01-26T05:41:28.903Z,98804.00
2023-01-26T05:43:58.317Z,98808.00
2023-01-26T05:46:26.357Z,98815.00
2023-01-26T05:48:54.448Z,98809.00
2023-01-26T05:51:22.509Z,98807.00
2023-01-26T05:53:50.607Z,98812.00
2023-01-26T05:56:18.647Z,98811.00
2023-01-26T05:58:46.693Z,98807.00
2023-01-26T06:01:16.155Z,98809.00
2023-01-26T06:03:44.198Z,98807.00
2023-01-26T06:06:12.254Z,98820.00
2023-01-26T06:08:40.302Z,98811.00
2023-01-26T06:11:08.393Z,98817.00
2023-01-26T06:13:36.470Z,98818.00
2023-01-26T06:16:04.863Z,98818.00
2023-01-26T06:18:34.299Z,98825.00
2023-01-26T06:21:02.398Z,98815.00
2023-01-26T06:23:30.868Z,98822.00
2023-01-26T06:26:00.165Z,98822.00
2023-01-26T06:28:28.255Z,98820.00
2023-01-26T06:31:00.613Z,98816.00
2023-01-26T06:33:28.723Z,98818.00
2023-01-26T06:35:58.136Z,98817.00
2023-01-26T06:38:26.216Z,98820.00
2023-01-26T06:40:54.326Z,98816.00
2023-01-26T06:43:22.381Z,98824.00
2023-01-26T06:45:50.486Z,98820.00
2023-01-26T06:48:18.573Z,98812.00
2023-01-26T06:50:46.799Z,98824.00
2023-01-26T06:53:26.977Z,98825.00
2023-01-26T06:55:55.023Z,98819.00
2023-01-26T06:58:23.062Z,98809.00
2023-01-26T07:00:51.210Z,98823.00
2023-01-26T07:03:19.226Z,98818.00
2023-01-26T07:05:47.316Z,98821.00
2023-01-26T07:08:15.356Z,98815.00
2023-01-26T07:10:44.823Z,98818.00
2023-01-26T07:13:12.893Z,98818.00
2023-01-26T07:15:40.917Z,98813.00
2023-01-26T07:18:08.967Z,98810.00
2023-01-26T07:20:38.023Z,98811.00
2023-01-26T07:23:06.063Z,98807.00
2023-01-26T07:25:34.132Z,98816.00
2023-01-26T07:28:03.559Z,98810.00
2023-01-26T07:30:31.708Z,98804.00
2023-01-26T07:33:00.694Z,98804.00
2023-01-26T07:35:29.457Z,98816.00
2023-01-26T07:37:59.037Z,98813.00
2023-01-26T07:40:27.155Z,98814.00
2023-01-26T07:42:56.639Z,98814.00
2023-01-26T07:45:26.190Z,98812.00
2023-01-26T07:47:55.614Z,98810.00
2023-01-26T07:50:25.785Z,98819.00
2023-01-26T07:52:53.871Z,98804.00
2023-01-26T07:55:23.435Z,98801.00
2023-01-26T07:57:51.484Z,98805.00
2023-01-26T08:00:20.653Z,98813.00
2023-01-26T08:02:52.228Z,98825.00
2023-01-26T08:05:20.273Z,98812.00
2023-01-26T08:07:48.567Z,98817.00
2023-01-26T08:10:16.731Z,98812.00
2023-01-26T08:12:44.749Z,98820.00
2023-01-26T08:15:13.159Z,98817.00
2023-01-26T08:17:41.219Z,98807.00
2023-01-26T08:20:14.237Z,98812.00
2023-01-26T08:22:42.434Z,98811.00
2023-01-26T08:25:10.811Z,98813.00
2023-01-26T08:27:38.886Z,98814.00
2023-01-26T08:30:08.350Z,98808.00
2023-01-26T08:32:36.419Z,98805.00
2023-01-26T08:35:04.621Z,98809.00
2023-01-26T08:37:34.334Z,98807.00
2023-01-26T08:40:02.406Z,98801.00
2023-01-26T08:42:30.485Z,98799.00
2023-01-26T08:44:58.553Z,98797.00
2023-01-26T08:47:26.676Z,98804.00
2023-01-26T08:49:54.728Z,98805.00
2023-01-26T08:55:14.494Z,98806.00
2023-01-26T08:57:42.551Z,98801.00
2023-01-26T09:00:12.287Z,98803.00
2023-01-26T09:02:40.652Z,98813.00
2023-01-26T09:05:15.056Z,98804.00
2023-01-26T09:07:43.125Z,98806.00
2023-01-26T09:10:12.545Z,98814.00
2023-01-26T09:12:42.211Z,98813.00
2023-01-26T09:15:10.936Z,98831.00
2023-01-26T09:17:39.046Z,98836.00
2023-01-26T09:20:08.472Z,98834.00
2023-01-26T09:22:36.549Z,98823.00
2023-01-26T09:25:04.901Z,98828.00
2023-01-26T09:27:32.974Z,98831.00
2023-01-26T09:30:02.483Z,98835.00
2023-01-26T09:32:31.107Z,98825.00
2023-01-26T09:34:59.211Z,98832.00
2023-01-26T09:37:27.359Z,98837.00
2023-01-26T09:39:55.504Z,98846.00
2023-01-26T09:42:40.859Z,98846.00
2023-01-26T09:45:23.005Z,98845.00
2023-01-26T09:47:56.997Z,98842.00
2023-01-26T09:50:27.337Z,98829.00
2023-01-26T09:52:56.589Z,98832.00
2023-01-26T09:55:25.480Z,98826.00
2023-01-26T09:57:55.803Z,98827.00
2023-01-26T10:00:27.211Z,98829.00
2023-01-26T10:03:02.243Z,98824.00
2023-01-26T10:05:33.354Z,98826.00
2023-01-26T10:08:01.449Z,98823.00
2023-01-26T10:10:31.052Z,98827.00
2023-01-26T10:12:59.267Z,98819.00
2023-01-26T10:15:32.019Z,98831.00
2023-01-26T10:18:05.869Z,98825.00
2023-01-26T10:20:35.439Z,98822.00
2023-01-26T10:23:06.062Z,98813.00
2023-01-26T10:25:35.562Z,98813.00
2023-01-26T10:28:05.960Z,98803.00
2023-01-26T10:30:35.464Z,98786.00
2023-01-26T10:33:03.724Z,98785.00
2023-01-26T10:35:32.043Z,98792.00
2023-01-26T10:38:00.065Z,98805.00
2023-01-26T10:40:28.222Z,98788.00
2023-01-26T10:42:58.211Z,98791.00
2023-01-26T10:45:30.410Z,98793.00
2023-01-26T10:48:17.949Z,98797.00
2023-01-26T10:50:46.054Z,98783.00
2023-01-26T10:53:19.082Z,98794.00
2023-01-26T10:55:59.313Z,98800.00
2023-01-26T10:58:42.275Z,98780.00
2023-01-26T11:01:12.620Z,98785.00
2023-01-26T11:03:42.200Z,98779.00
2023-01-26T11:06:15.169Z,98777.00
2023-01-26T11:08:43.258Z,98778.00
2023-01-26T11:11:25.553Z,98764.00
2023-01-26T11:14:11.591Z,98774.00
2023-01-26T11:16:39.805Z,98771.00
2023-01-26T11:19:12.416Z,98768.00
2023-01-26T11:21:41.673Z,98763.00
2023-01-26T11:24:11.015Z,98759.00
2023-01-26T11:27:15.448Z,98755.00
2023-01-26T11:29:51.351Z,98739.00
2023-01-26T11:32:23.450Z,98743.00
2023-01-26T11:34:58.787Z,98743.00
2023-01-26T11:37:37.577Z,98733.00
2023-01-26T11:40:16.167Z,98734.00
2023-01-26T11:42:46.295Z,98734.00
2023-01-26T11:45:21.646Z,98730.00
2023-01-26T11:47:57.614Z,98733.00
2023-01-26T11:50:35.086Z,98730.00
2023-01-26T11:53:24.840Z,98727.00
2023-01-26T11:56:05.575Z,98715.00
2023-01-26T11:58:35.267Z,98721.00
2023-01-26T12:01:04.426Z,98712.00
2023-01-26T12:03:36.030Z,98709.00
2023-01-26T12:06:06.861Z,98719.00
2023-01-26T12:08:39.481Z,98700.00
2023-01-26T12:11:25.515Z,98712.00
2023-01-26T12:14:03.748Z,98704.00
2023-01-26T12:16:37.091Z,98696.00
2023-01-26T12:19:11.814Z,98687.00
2023-01-26T12:21:43.383Z,98684.00
2023-01-26T12:24:39.237Z,98692.00
2023-01-26T12:27:02.855Z,98685.00
2023-01-26T12:29:33.660Z,98691.00
2023-01-26T12:32:03.807Z,98687.00
2023-01-26T12:34:33.902Z,98684.00
2023-01-26T12:37:14.763Z,98683.00
2023-01-26T12:39:45.470Z,98690.00
2023-01-26T12:42:20.391Z,98674.00
2023-01-26T12:44:51.940Z,98671.00
2023-01-26T12:47:22.572Z,98668.00
2023-01-26T12:49:53.530Z,98676.00
2023-01-26T12:52:25.150Z,98663.00
2023-01-26T12:54:57.520Z,98670.00
2023-01-26T12:57:27.345Z,98677.00
2023-01-26T12:59:58.626Z,98670.00
2023-01-26T13:02:28.860Z,98669.00
2023-01-26T13:04:58.115Z,98671.00
2023-01-26T13:07:35.586Z,98667.00
2023-01-26T13:10:27.750Z,98667.00
2023-01-26T13:12:57.482Z,98661.00
2023-01-26T13:15:26.222Z,98656.00
2023-01-26T13:17:58.950Z,98654.00
2023-01-26T13:20:46.022Z,98651.00
2023-01-26T13:23:39.370Z,98666.00
2023-01-26T13:26:41.175Z,98645.00
2023-01-26T13:29:32.977Z,98663.00
2023-01-26T13:32:03.159Z,98653.00
2023-01-26T13:34:33.539Z,98664.00
2023-01-26T13:37:06.726Z,98655.00
2023-01-26T13:39:37.551Z,98654.00
2023-01-26T13:42:16.331Z,98661.00
2023-01-26T13:44:47.319Z,98656.00
2023-01-26T13:47:19.972Z,98645.00
2023-01-26T13:49:50.502Z,98656.00
2023-01-26T13:52:19.638Z,98656.00
2023-01-26T13:54:49.220Z,98662.00
2023-01-26T13:57:22.095Z,98664.00
2023-01-26T13:59:50.763Z,98654.00
2023-01-26T14:02:23.938Z,98660.00
2023-01-26T14:04:52.692Z,98666.00
2023-01-26T14:07:20.766Z,98662.00
2023-01-26T14:09:51.975Z,98663.00
2023-01-26T14:12:22.166Z,98668.00
2023-01-26T14:14:50.317Z,98670.00
2023-01-26T14:17:29.305Z,98675.00
2023-01-26T14:19:58.275Z,98669.00
2023-01-26T14:22:26.461Z,98663.00
2023-01-26T14:24:55.909Z,98677.00
2023-01-26T14:27:30.471Z,98673.00
2023-01-26T14:29:58.839Z,98677.00
2023-01-26T14:32:29.472Z,98674.00
2023-01-26T14:34:58.790Z,98674.00
2023-01-26T14:37:26.969Z,98674.00
2023-01-26T14:40:18.610Z,98678.00
2023-01-26T14:42:46.807Z,98679.00
2023-01-26T14:45:14.879Z,98686.00
2023-01-26T14:47:43.040Z,98696.00
2023-01-26T14:50:14.100Z,98699.00
2023-01-26T14:52:45.417Z,98692.00
2023-01-26T14:55:18.290Z,98692.00
2023-01-26T14:57:46.355Z,98689.00
2023-01-26T15:00:23.912Z,98694.00
2023-01-26T15:02:53.581Z,98699.00
2023-01-26T15:05:22.762Z,98692.00
2023-01-26T15:07:52.532Z,98701.00
2023-01-26T15:10:36.203Z,98691.00
2023-01-26T15:13:07.338Z,98694.00
2023-01-26T15:18:08.183Z,98696.00
2023-01-26T15:20:40.338Z,98687.00
2023-01-26T15:23:29.815Z,98697.00
2023-01-26T15:26:06.087Z,98695.00
2023-01-26T15:28:34.229Z,98705.00
2023-01-26T15:31:02.376Z,98697.00
2023-01-26T15:33:49.697Z,98707.00
2023-01-26T15:36:25.839Z,98694.00
2023-01-26T15:38:57.614Z,98692.00
2023-01-26T15:41:27.151Z,98696.00
2023-01-26T15:43:55.416Z,98696.00
2023-01-26T15:46:23.520Z,98699.00
2023-01-26T15:48:51.642Z,98701.00
2023-01-26T15:51:19.697Z,98715.00
2023-01-26T15:53:47.724Z,98707.00
2023-01-26T15:56:16.391Z,98710.00
2023-01-26T15:58:45.866Z,98712.00
2023-01-26T16:01:16.819Z,98715.00
2023-01-26T16:03:45.242Z,98718.00
2023-01-26T16:06:26.037Z,98715.00
2023-01-26T16:08:54.120Z,98727.00
2023-01-26T16:11:22.284Z,98727.00
2023-01-26T16:14:02.747Z,98720.00
2023-01-26T16:16:31.654Z,98723.00
2023-01-26T16:18:59.908Z,98724.00
2023-01-26T16:21:31.516Z,98715.00
2023-01-26T16:23:59.923Z,98718.00
2023-01-26T16:26:28.356Z,98723.00
2023-01-26T16:28:57.944Z,98726.00
2023-01-26T16:31:27.270Z,98725.00
2023-01-26T16:33:55.340Z,98729.00
2023-01-26T16:36:23.431Z,98720.00
2023-01-26T16:38:51.470Z,98721.00
2023-01-26T16:41:23.201Z,98715.00
2023-01-26T16:43:51.418Z,98732.00
2023-01-26T16:46:20.924Z,98731.00
2023-01-26T16:48:49.288Z,98732.00
2023-01-26T16:51:21.368Z,98731.00
2023-01-26T16:53:49.552Z,98720.00
2023-01-26T16:56:18.254Z,98714.00
2023-01-26T16:58:46.497Z,98704.00
2023-01-26T17:01:20.633Z,98717.00
2023-01-26T17:03:49.115Z,98717.00
2023-01-26T17:06:17.733Z,98719.00
2023-01-26T17:08:46.377Z,98723.00
2023-01-26T17:11:17.365Z,98721.00
2023-01-26T17:13:45.875Z,98706.00
2023-01-26T17:16:15.251Z,98719.00
2023-01-26T17:18:45.537Z,98703.00
2023-01-26T17:21:13.735Z,98715.00
2023-01-26T17:23:44.438Z,98716.00
2023-01-26T17:26:15.355Z,98714.00
2023-01-26T17:28:43.519Z,98720.00
2023-01-26T17:31:12.200Z,98719.00
2023-01-26T17:33:40.261Z,98720.00
2023-01-26T17:36:10.481Z,98725.00
2023-01-26T17:38:38.647Z,98723.00
2023-01-26T17:41:06.716Z,98718.00
2023-01-26T17:43:35.055Z,98723.00
2023-01-26T17:46:06.297Z,98729.00
2023-01-26T17:48:35.198Z,98723.00
2023-01-26T17:51:06.302Z,98713.00
2023-01-26T17:53:37.514Z,98726.00
2023-01-26T17:56:08.257Z,98732.00
2023-01-26T17:58:37.785Z,98731.00
2023-01-26T18:01:06.226Z,98738.00
2023-01-26T18:03:34.383Z,98731.00
2023-01-26T18:06:02.516Z,98731.00
2023-01-26T18:08:30.587Z,98735.00
2023-01-26T18:11:00.256Z,98736.00
2023-01-26T18:13:29.810Z,98725.00
2023-01-26T18:15:57.889Z,98747.00
2023-01-26T18:18:26.009Z,98729.00
2023-01-26T18:20:54.105Z,98727.00
2023-01-26T18:23:22.880Z,98728.00
2023-01-26T18:25:51.064Z,98720.00
2023-01-26T18:28:20.535Z,98732.00
2023-01-26T18:30:49.024Z,98741.00
2023-01-26T18:33:17.175Z,98736.00
2023-01-26T18:35:45.272Z,98729.00
2023-01-26T18:38:13.350Z,98724.00
2023-01-26T18:40:44.753Z,98731.00
2023-01-26T18:43:12.888Z,98735.00
2023-01-26T18:45:43.728Z,98737.00
2023-01-26T18:48:11.812Z,98736.00
2023-01-26T18:50:39.888Z,98726.00
2023-01-26T18:53:07.952Z,98736.00
2023-01-26T18:55:36.105Z,98732.00
2023-01-26T18:58:04.538Z,98741.00
2023-01-26T19:00:32.687Z,98733.00
2023-01-26T19:03:02.329Z,98740.00
2023-01-26T19:05:31.232Z,98730.00
2023-01-26T19:08:10.327Z,98731.00
2023-01-26T19:10:39.044Z,98724.00
2023-01-26T19:13:13.293Z,98736.00
2023-01-26T19:15:41.432Z,98730.00
2023-01-26T19:18:10.888Z,98729.00
2023-01-26T19:20:39.032Z,98727.00
2023-01-26T19:23:07.174Z,98726.00
2023-01-26T19:25:37.159Z,98727.00
2023-01-26T19:28:05.429Z,98731.00
2023-01-26T19:30:34.346Z,98725.00
2023-01-26T19:33:19.700Z,98728.00
2023-01-26T19:35:49.193Z,98726.00
2023-01-26T19:38:17.251Z,98733.00
2023-01-26T19:40:45.842Z,98737.00
2023-01-26T19:43:13.977Z,98721.00
2023-01-26T19:45:42.150Z,98723.00
2023-01-26T19:48:10.227Z,98718.00
2023-01-26T19:50:38.312Z,98721.00
2023-01-26T19:53:07.884Z,98717.00
2023-01-26T19:55:35.929Z,98723.00
2023-01-26T19:58:07.164Z,98723.00
2023-01-26T20:00:35.444Z,98733.00
2023-01-26T20:03:03.700Z,98733.00
2023-01-26T20:05:31.719Z,98731.00
2023-01-26T20:08:00.930Z,98722.00
2023-01-26T20:10:30.378Z,98735.00
2023-01-26T20:13:01.296Z,98723.00
2023-01-26T20:15:29.402Z,98725.00
2023-01-26T20:17:57.502Z,98728.00
2023-01-26T20:20:25.635Z,98732.00
2023-01-26T20:22:53.677Z,98735.00
2023-01-26T20:25:21.741Z,98747.00
2023-01-26T20:27:51.214Z,98736.00
2023-01-26T20:30:19.609Z,98735.00
2023-01-26T20:32:47.681Z,98741.00
2023-01-26T20:35:15.807Z,98734.00
2023-01-26T20:37:43.935Z,98740.00
2023-01-26T20:40:13.801Z,98738.00
2023-01-26T20:42:42.019Z,98742.00
2023-01-26T20:45:12.214Z,98738.00
2023-01-26T20:47:40.511Z,98739.00
2023-01-26T20:50:09.022Z,98728.00
2023-01-26T20:52:37.138Z,98730.00
2023-01-26T20:55:06.976Z,98734.00
2023-01-26T20:57:35.143Z,98735.00
2023-01-26T21:00:04.135Z,98739.00
2023-01-26T21:02:33.624Z,98726.00
2023-01-26T21:05:01.844Z,98731.00
2023-01-26T21:07:29.995Z,98728.00
2023-01-26T21:09:58.066Z,98728.00
2023-01-26T21:12:26.276Z,98729.00
2023-01-26T21:14:54.466Z,98728.00
2023-01-26T21:17:23.107Z,98724.00
2023-01-26T21:19:52.543Z,98718.00
2023-01-26T21:22:21.028Z,98719.00
2023-01-26T21:24:49.117Z,98721.00
2023-01-26T21:27:18.364Z,98730.00
2023-01-26T21:29:46.401Z,98729.00
2023-01-26T21:32:15.737Z,98726.00
2023-01-26T21:34:43.801Z,98720.00
2023-01-26T21:37:13.222Z,98717.00
2023-01-26T21:39:41.320Z,98713.00
2023-01-26T21:42:09.422Z,98717.00
2023-01-26T21:44:57.835Z,98709.00
2023-01-26T21:47:25.886Z,98717.00
2023-01-26T21:49:54.226Z,98720.00
2023-01-26T21:52:41.099Z,98714.00
2023-01-26T21:55:09.876Z,98722.00
2023-01-26T21:57:55.360Z,98727.00
2023-01-26T22:00:23.667Z,98726.00
2023-01-26T22:02:52.220Z,98725.00
2023-01-26T22:05:20.376Z,98724.00
2023-01-26T22:07:49.819Z,98723.00
2023-01-26T22:10:18.766Z,98723.00
2023-01-26T22:12:46.934Z,98711.00
2023-01-26T22:15:15.487Z,98713.00
2023-01-26T22:17:43.534Z,98716.00
2023-01-26T22:20:13.719Z,98715.00
2023-01-26T22:22:42.025Z,98710.00
2023-01-26T22:25:11.763Z,98708.00
2023-01-26T22:27:40.787Z,98703.00
2023-01-26T22:30:10.746Z,98711.00
2023-01-26T22:32:38.912Z,98719.00
2023-01-26T22:35:07.613Z,98708.00
2023-01-26T22:37:35.649Z,98702.00
2023-01-26T22:40:03.776Z,98710.00
2023-01-26T22:42:33.275Z,98704.00
2023-01-26T22:45:01.348Z,98701.00
2023-01-26T22:47:29.476Z,98702.00
2023-01-26T22:49:57.575Z,98703.00
2023-01-26T22:52:25.696Z,98708.00
2023-01-26T22:54:54.033Z,98707.00
2023-01-26T22:57:22.091Z,98698.00
2023-01-26T22:59:51.547Z,98706.00
2023-01-26T23:02:19.597Z,98695.00
2023-01-26T23:04:47.648Z,98706.00
2023-01-26T23:07:15.675Z,98696.00
2023-01-26T23:09:43.748Z,98685.00
2023-01-26T23:12:11.924Z,98690.00
2023-01-26T23:14:40.001Z,98691.00
2023-01-26T23:17:09.495Z,98687.00
2023-01-26T23:19:37.560Z,98688.00
2023-01-26T23:22:05.930Z,98691.00
2023-01-26T23:24:33.987Z,98678.00
2023-01-26T23:27:02.179Z,98681.00
2023-01-26T23:29:30.227Z,98678.00
2023-01-26T23:31:58.387Z,98676.00
2023-01-26T23:34:27.859Z,98672.00
2023-01-26T23:36:55.901Z,98675.00
2023-01-26T23:39:23.938Z,98679.00
2023-01-26T23:41:51.983Z,98681.00
2023-01-26T23:44:20.043Z,98683.00
2023-01-26T23:46:48.189Z,98675.00
2023-01-26T23:49:16.265Z,98684.00
2023-01-26T23:51:45.717Z,98677.00
2023-01-26T23:54:13.741Z,98686.00
2023-01-26T23:56:41.813Z,98668.00
2023-01-26T23:59:09.854Z,98658.00
